sensor_id;sensor_type;location;lat;lon;timestamp;pressure;altitude;pressure_sealevel;temperature
68952;BMP180;56000;51.146;17.112;2024-03-07T00:00:14;101002.40;;;4.10
68952;BMP180;56000;51.146;17.112;2024-03-07T00:03:04;101002.60;;;4.10
68952;BMP180;56000;51.146;17.112;2024-03-07T00:05:32;100995.40;;;4.10
68952;BMP180;56000;51.146;17.112;2024-03-07T00:08:01;101000.40;;;4.06
68952;BMP180;56000;51.146;17.112;2024-03-07T00:10:31;101001.80;;;4.00
68952;BMP180;56000;51.146;17.112;2024-03-07T00:12:59;101002.40;;;4.00
68952;BMP180;56000;51.146;17.112;2024-03-07T00:15:28;100999.20;;;4.00
68952;BMP180;56000;51.146;17.112;2024-03-07T00:17:57;100999.60;;;4.00
68952;BMP180;56000;51.146;17.112;2024-03-07T00:20:26;100998.80;;;3.96
68952;BMP180;56000;51.146;17.112;2024-03-07T00:22:55;100998.40;;;3.90
68952;BMP180;56000;51.146;17.112;2024-03-07T00:25:23;100999.20;;;3.90
68952;BMP180;56000;51.146;17.112;2024-03-07T00:27:52;101003.80;;;3.90
68952;BMP180;56000;51.146;17.112;2024-03-07T00:30:21;101007.60;;;3.90
68952;BMP180;56000;51.146;17.112;2024-03-07T00:32:50;101006.80;;;3.90
68952;BMP180;56000;51.146;17.112;2024-03-07T00:35:19;101007.60;;;3.90
68952;BMP180;56000;51.146;17.112;2024-03-07T00:37:48;101003.60;;;3.90
68952;BMP180;56000;51.146;17.112;2024-03-07T00:40:17;101002.60;;;3.86
68952;BMP180;56000;51.146;17.112;2024-03-07T00:42:46;101002.20;;;3.80
68952;BMP180;56000;51.146;17.112;2024-03-07T00:45:14;100999.00;;;3.80
68952;BMP180;56000;51.146;17.112;2024-03-07T00:47:44;100995.40;;;3.80
68952;BMP180;56000;51.146;17.112;2024-03-07T00:50:13;100996.80;;;3.80
68952;BMP180;56000;51.146;17.112;2024-03-07T00:52:41;100997.40;;;3.80
68952;BMP180;56000;51.146;17.112;2024-03-07T00:55:10;100997.60;;;3.78
68952;BMP180;56000;51.146;17.112;2024-03-07T00:57:39;100996.20;;;3.70
68952;BMP180;56000;51.146;17.112;2024-03-07T01:00:09;100995.60;;;3.70
68952;BMP180;56000;51.146;17.112;2024-03-07T01:02:41;100994.60;;;3.70
68952;BMP180;56000;51.146;17.112;2024-03-07T01:05:12;100991.00;;;3.70
68952;BMP180;56000;51.146;17.112;2024-03-07T01:07:41;100987.00;;;3.70
68952;BMP180;56000;51.146;17.112;2024-03-07T01:10:12;100980.00;;;3.70
68952;BMP180;56000;51.146;17.112;2024-03-07T01:12:41;100981.20;;;3.70
68952;BMP180;56000;51.146;17.112;2024-03-07T01:15:10;100985.00;;;3.70
68952;BMP180;56000;51.146;17.112;2024-03-07T01:17:39;100978.40;;;3.70
68952;BMP180;56000;51.146;17.112;2024-03-07T01:20:09;100981.40;;;3.70
68952;BMP180;56000;51.146;17.112;2024-03-07T01:22:39;100981.60;;;3.70
68952;BMP180;56000;51.146;17.112;2024-03-07T01:25:08;100978.60;;;3.70
68952;BMP180;56000;51.146;17.112;2024-03-07T01:27:36;100980.60;;;3.70
68952;BMP180;56000;51.146;17.112;2024-03-07T01:30:06;100980.80;;;3.70
68952;BMP180;56000;51.146;17.112;2024-03-07T01:32:36;100979.40;;;3.70
68952;BMP180;56000;51.146;17.112;2024-03-07T01:35:06;100979.00;;;3.64
68952;BMP180;56000;51.146;17.112;2024-03-07T01:37:35;100977.40;;;3.64
68952;BMP180;56000;51.146;17.112;2024-03-07T01:40:05;100981.60;;;3.64
68952;BMP180;56000;51.146;17.112;2024-03-07T01:42:34;100985.00;;;3.62
68952;BMP180;56000;51.146;17.112;2024-03-07T01:45:04;100978.60;;;3.64
68952;BMP180;56000;51.146;17.112;2024-03-07T01:47:33;100984.40;;;3.62
68952;BMP180;56000;51.146;17.112;2024-03-07T01:50:01;100981.60;;;3.60
68952;BMP180;56000;51.146;17.112;2024-03-07T01:52:31;100979.80;;;3.60
68952;BMP180;56000;51.146;17.112;2024-03-07T01:54:59;100980.00;;;3.60
68952;BMP180;56000;51.146;17.112;2024-03-07T01:57:29;100975.80;;;3.60
68952;BMP180;56000;51.146;17.112;2024-03-07T01:59:57;100980.40;;;3.60
68952;BMP180;56000;51.146;17.112;2024-03-07T02:02:27;100979.40;;;3.60
68952;BMP180;56000;51.146;17.112;2024-03-07T02:04:56;100985.00;;;3.60
68952;BMP180;56000;51.146;17.112;2024-03-07T02:07:24;100982.80;;;3.60
68952;BMP180;56000;51.146;17.112;2024-03-07T02:10:00;100981.60;;;3.60
68952;BMP180;56000;51.146;17.112;2024-03-07T02:12:29;100979.60;;;3.60
68952;BMP180;56000;51.146;17.112;2024-03-07T02:14:58;100976.00;;;3.52
68952;BMP180;56000;51.146;17.112;2024-03-07T02:17:27;100973.60;;;3.50
68952;BMP180;56000;51.146;17.112;2024-03-07T02:19:56;100979.80;;;3.50
68952;BMP180;56000;51.146;17.112;2024-03-07T02:22:25;100978.20;;;3.50
68952;BMP180;56000;51.146;17.112;2024-03-07T02:24:54;100985.40;;;3.50
68952;BMP180;56000;51.146;17.112;2024-03-07T02:27:22;100980.40;;;3.50
68952;BMP180;56000;51.146;17.112;2024-03-07T02:29:51;100983.60;;;3.50
68952;BMP180;56000;51.146;17.112;2024-03-07T02:32:20;100983.20;;;3.50
68952;BMP180;56000;51.146;17.112;2024-03-07T02:34:48;100985.20;;;3.50
68952;BMP180;56000;51.146;17.112;2024-03-07T02:37:17;100979.80;;;3.50
68952;BMP180;56000;51.146;17.112;2024-03-07T02:39:46;100982.40;;;3.40
68952;BMP180;56000;51.146;17.112;2024-03-07T02:42:14;100984.40;;;3.40
68952;BMP180;56000;51.146;17.112;2024-03-07T02:44:43;100987.00;;;3.40
68952;BMP180;56000;51.146;17.112;2024-03-07T02:47:12;100988.00;;;3.38
68952;BMP180;56000;51.146;17.112;2024-03-07T02:49:41;100988.40;;;3.30
68952;BMP180;56000;51.146;17.112;2024-03-07T02:52:09;100985.20;;;3.30
68952;BMP180;56000;51.146;17.112;2024-03-07T02:54:38;100983.00;;;3.30
68952;BMP180;56000;51.146;17.112;2024-03-07T02:57:06;100985.80;;;3.30
68952;BMP180;56000;51.146;17.112;2024-03-07T02:59:35;100985.00;;;3.20
68952;BMP180;56000;51.146;17.112;2024-03-07T03:02:04;100987.40;;;3.20
68952;BMP180;56000;51.146;17.112;2024-03-07T03:04:33;100991.20;;;3.20
68952;BMP180;56000;51.146;17.112;2024-03-07T03:07:02;100993.60;;;3.10
68952;BMP180;56000;51.146;17.112;2024-03-07T03:09:30;100987.20;;;3.10
68952;BMP180;56000;51.146;17.112;2024-03-07T03:12:01;100989.60;;;3.10
68952;BMP180;56000;51.146;17.112;2024-03-07T03:14:29;100990.00;;;3.00
68952;BMP180;56000;51.146;17.112;2024-03-07T03:16:58;100985.20;;;3.00
68952;BMP180;56000;51.146;17.112;2024-03-07T03:19:27;100988.20;;;2.90
68952;BMP180;56000;51.146;17.112;2024-03-07T03:21:55;100993.40;;;2.90
68952;BMP180;56000;51.146;17.112;2024-03-07T03:24:24;100996.20;;;2.80
68952;BMP180;56000;51.146;17.112;2024-03-07T03:26:53;100994.20;;;2.80
68952;BMP180;56000;51.146;17.112;2024-03-07T03:29:22;100993.40;;;2.70
68952;BMP180;56000;51.146;17.112;2024-03-07T03:31:50;100991.00;;;2.68
68952;BMP180;56000;51.146;17.112;2024-03-07T03:34:19;100993.60;;;2.60
68952;BMP180;56000;51.146;17.112;2024-03-07T03:36:47;100996.20;;;2.54
68952;BMP180;56000;51.146;17.112;2024-03-07T03:39:16;100993.40;;;2.50
68952;BMP180;56000;51.146;17.112;2024-03-07T03:41:48;100990.40;;;2.50
68952;BMP180;56000;51.146;17.112;2024-03-07T03:44:17;100993.00;;;2.42
68952;BMP180;56000;51.146;17.112;2024-03-07T03:46:46;100990.60;;;2.40
68952;BMP180;56000;51.146;17.112;2024-03-07T03:49:14;100990.40;;;2.40
68952;BMP180;56000;51.146;17.112;2024-03-07T03:51:43;100996.80;;;2.40
68952;BMP180;56000;51.146;17.112;2024-03-07T03:54:15;101000.60;;;2.40
68952;BMP180;56000;51.146;17.112;2024-03-07T03:56:44;100996.20;;;2.38
68952;BMP180;56000;51.146;17.112;2024-03-07T03:59:12;101001.00;;;2.40
68952;BMP180;56000;51.146;17.112;2024-03-07T04:01:41;101002.00;;;2.40
68952;BMP180;56000;51.146;17.112;2024-03-07T04:04:10;101004.20;;;2.40
68952;BMP180;56000;51.146;17.112;2024-03-07T04:06:38;101004.00;;;2.48
68952;BMP180;56000;51.146;17.112;2024-03-07T04:09:07;101001.40;;;2.50
68952;BMP180;56000;51.146;17.112;2024-03-07T04:11:36;101001.20;;;2.60
68952;BMP180;56000;51.146;17.112;2024-03-07T04:14:05;101006.40;;;2.68
68952;BMP180;56000;51.146;17.112;2024-03-07T04:16:33;101003.60;;;2.76
68952;BMP180;56000;51.146;17.112;2024-03-07T04:19:02;101002.20;;;2.86
68952;BMP180;56000;51.146;17.112;2024-03-07T04:21:31;101002.20;;;2.90
68952;BMP180;56000;51.146;17.112;2024-03-07T04:24:00;101008.60;;;3.00
68952;BMP180;56000;51.146;17.112;2024-03-07T04:26:28;101006.00;;;3.10
68952;BMP180;56000;51.146;17.112;2024-03-07T04:28:57;101006.40;;;3.10
68952;BMP180;56000;51.146;17.112;2024-03-07T04:31:26;101006.40;;;3.20
68952;BMP180;56000;51.146;17.112;2024-03-07T04:33:55;101007.00;;;3.20
68952;BMP180;56000;51.146;17.112;2024-03-07T04:36:23;101005.60;;;3.26
68952;BMP180;56000;51.146;17.112;2024-03-07T04:38:52;101009.80;;;3.30
68952;BMP180;56000;51.146;17.112;2024-03-07T04:41:21;101011.20;;;3.30
68952;BMP180;56000;51.146;17.112;2024-03-07T04:43:49;101011.60;;;3.30
68952;BMP180;56000;51.146;17.112;2024-03-07T04:46:18;101012.00;;;3.30
68952;BMP180;56000;51.146;17.112;2024-03-07T04:48:46;101007.00;;;3.30
68952;BMP180;56000;51.146;17.112;2024-03-07T04:51:15;101010.40;;;3.30
68952;BMP180;56000;51.146;17.112;2024-03-07T04:53:43;101012.20;;;3.30
68952;BMP180;56000;51.146;17.112;2024-03-07T04:56:12;101014.20;;;3.30
68952;BMP180;56000;51.146;17.112;2024-03-07T04:58:42;101014.00;;;3.30
68952;BMP180;56000;51.146;17.112;2024-03-07T05:01:10;101021.00;;;3.30
68952;BMP180;56000;51.146;17.112;2024-03-07T05:03:39;101022.20;;;3.30
68952;BMP180;56000;51.146;17.112;2024-03-07T05:06:08;101021.80;;;3.30
68952;BMP180;56000;51.146;17.112;2024-03-07T05:08:36;101021.40;;;3.30
68952;BMP180;56000;51.146;17.112;2024-03-07T05:11:05;101026.80;;;3.30
68952;BMP180;56000;51.146;17.112;2024-03-07T05:13:33;101023.60;;;3.30
68952;BMP180;56000;51.146;17.112;2024-03-07T05:16:02;101031.20;;;3.30
68952;BMP180;56000;51.146;17.112;2024-03-07T05:18:31;101034.20;;;3.30
68952;BMP180;56000;51.146;17.112;2024-03-07T05:21:00;101034.60;;;3.30
68952;BMP180;56000;51.146;17.112;2024-03-07T05:23:49;101035.40;;;3.30
68952;BMP180;56000;51.146;17.112;2024-03-07T05:26:17;101033.80;;;3.30
68952;BMP180;56000;51.146;17.112;2024-03-07T05:28:46;101028.60;;;3.30
68952;BMP180;56000;51.146;17.112;2024-03-07T05:31:15;101034.20;;;3.38
68952;BMP180;56000;51.146;17.112;2024-03-07T05:33:45;101037.00;;;3.40
68952;BMP180;56000;51.146;17.112;2024-03-07T05:36:14;101038.60;;;3.40
68952;BMP180;56000;51.146;17.112;2024-03-07T05:38:43;101039.80;;;3.40
68952;BMP180;56000;51.146;17.112;2024-03-07T05:41:11;101044.80;;;3.42
68952;BMP180;56000;51.146;17.112;2024-03-07T05:43:40;101049.60;;;3.50
68952;BMP180;56000;51.146;17.112;2024-03-07T05:46:09;101046.40;;;3.50
68952;BMP180;56000;51.146;17.112;2024-03-07T05:48:38;101048.00;;;3.50
68952;BMP180;56000;51.146;17.112;2024-03-07T05:51:07;101052.40;;;3.60
68952;BMP180;56000;51.146;17.112;2024-03-07T05:53:38;101046.80;;;3.60
68952;BMP180;56000;51.146;17.112;2024-03-07T05:56:07;101050.60;;;3.60
68952;BMP180;56000;51.146;17.112;2024-03-07T05:58:35;101055.80;;;3.60
68952;BMP180;56000;51.146;17.112;2024-03-07T06:01:04;101049.80;;;3.60
68952;BMP180;56000;51.146;17.112;2024-03-07T06:03:33;101058.40;;;3.60
68952;BMP180;56000;51.146;17.112;2024-03-07T06:06:02;101052.20;;;3.60
68952;BMP180;56000;51.146;17.112;2024-03-07T06:08:32;101052.40;;;3.64
68952;BMP180;56000;51.146;17.112;2024-03-07T06:11:01;101056.60;;;3.70
68952;BMP180;56000;51.146;17.112;2024-03-07T06:13:29;101055.40;;;3.64
68952;BMP180;56000;51.146;17.112;2024-03-07T06:15:58;101056.80;;;3.70
68952;BMP180;56000;51.146;17.112;2024-03-07T06:18:28;101058.40;;;3.70
68952;BMP180;56000;51.146;17.112;2024-03-07T06:20:59;101068.40;;;3.70
68952;BMP180;56000;51.146;17.112;2024-03-07T06:23:27;101065.20;;;3.80
68952;BMP180;56000;51.146;17.112;2024-03-07T06:25:57;101066.20;;;3.80
68952;BMP180;56000;51.146;17.112;2024-03-07T06:28:27;101068.20;;;3.80
68952;BMP180;56000;51.146;17.112;2024-03-07T06:30:57;101070.20;;;3.88
68952;BMP180;56000;51.146;17.112;2024-03-07T06:33:25;101073.20;;;3.86
68952;BMP180;56000;51.146;17.112;2024-03-07T06:35:54;101077.20;;;3.80
68952;BMP180;56000;51.146;17.112;2024-03-07T06:38:23;101075.20;;;3.86
68952;BMP180;56000;51.146;17.112;2024-03-07T06:40:52;101080.20;;;3.90
68952;BMP180;56000;51.146;17.112;2024-03-07T06:43:21;101080.60;;;3.90
68952;BMP180;56000;51.146;17.112;2024-03-07T06:45:50;101080.20;;;4.00
68952;BMP180;56000;51.146;17.112;2024-03-07T06:48:19;101082.60;;;4.00
68952;BMP180;56000;51.146;17.112;2024-03-07T06:50:49;101086.00;;;4.00
68952;BMP180;56000;51.146;17.112;2024-03-07T06:53:19;101086.60;;;4.00
68952;BMP180;56000;51.146;17.112;2024-03-07T06:55:48;101092.80;;;4.00
68952;BMP180;56000;51.146;17.112;2024-03-07T06:58:19;101094.00;;;4.00
68952;BMP180;56000;51.146;17.112;2024-03-07T07:00:48;101093.00;;;4.00
68952;BMP180;56000;51.146;17.112;2024-03-07T07:03:19;101094.40;;;4.00
68952;BMP180;56000;51.146;17.112;2024-03-07T07:05:48;101096.60;;;4.00
68952;BMP180;56000;51.146;17.112;2024-03-07T07:08:17;101098.80;;;4.08
68952;BMP180;56000;51.146;17.112;2024-03-07T07:10:46;101093.80;;;4.10
68952;BMP180;56000;51.146;17.112;2024-03-07T07:13:15;101095.60;;;4.10
68952;BMP180;56000;51.146;17.112;2024-03-07T07:15:45;101096.00;;;4.20
68952;BMP180;56000;51.146;17.112;2024-03-07T07:18:13;101094.40;;;4.20
68952;BMP180;56000;51.146;17.112;2024-03-07T07:20:42;101098.40;;;4.28
68952;BMP180;56000;51.146;17.112;2024-03-07T07:23:11;101098.00;;;4.30
68952;BMP180;56000;51.146;17.112;2024-03-07T07:25:41;101096.40;;;4.30
68952;BMP180;56000;51.146;17.112;2024-03-07T07:28:09;101096.60;;;4.30
68952;BMP180;56000;51.146;17.112;2024-03-07T07:30:39;101089.20;;;4.30
68952;BMP180;56000;51.146;17.112;2024-03-07T07:33:10;101098.20;;;4.40
68952;BMP180;56000;51.146;17.112;2024-03-07T07:35:40;101103.40;;;4.40
68952;BMP180;56000;51.146;17.112;2024-03-07T07:38:09;101097.00;;;4.40
68952;BMP180;56000;51.146;17.112;2024-03-07T07:40:39;101098.20;;;4.50
68952;BMP180;56000;51.146;17.112;2024-03-07T07:43:09;101095.80;;;4.60
68952;BMP180;56000;51.146;17.112;2024-03-07T07:45:44;101092.40;;;4.60
68952;BMP180;56000;51.146;17.112;2024-03-07T07:48:12;101091.40;;;4.72
68952;BMP180;56000;51.146;17.112;2024-03-07T07:50:42;101096.80;;;4.86
68952;BMP180;56000;51.146;17.112;2024-03-07T07:53:11;101103.20;;;4.90
68952;BMP180;56000;51.146;17.112;2024-03-07T07:55:40;101096.80;;;4.98
68952;BMP180;56000;51.146;17.112;2024-03-07T07:58:08;101097.40;;;5.02
68952;BMP180;56000;51.146;17.112;2024-03-07T08:00:37;101100.80;;;5.10
68952;BMP180;56000;51.146;17.112;2024-03-07T08:03:06;101095.60;;;5.00
68952;BMP180;56000;51.146;17.112;2024-03-07T08:05:35;101095.40;;;5.00
68952;BMP180;56000;51.146;17.112;2024-03-07T08:08:05;101096.00;;;5.10
68952;BMP180;56000;51.146;17.112;2024-03-07T08:10:35;101096.60;;;5.10
68952;BMP180;56000;51.146;17.112;2024-03-07T08:13:05;101097.60;;;5.20
68952;BMP180;56000;51.146;17.112;2024-03-07T08:15:34;101093.60;;;5.20
68952;BMP180;56000;51.146;17.112;2024-03-07T08:18:03;101099.20;;;5.22
68952;BMP180;56000;51.146;17.112;2024-03-07T08:20:36;101097.60;;;5.36
68952;BMP180;56000;51.146;17.112;2024-03-07T08:23:05;101094.80;;;5.50
68952;BMP180;56000;51.146;17.112;2024-03-07T08:25:34;101094.80;;;5.68
68952;BMP180;56000;51.146;17.112;2024-03-07T08:28:03;101094.00;;;5.72
68952;BMP180;56000;51.146;17.112;2024-03-07T08:30:33;101096.00;;;5.90
68952;BMP180;56000;51.146;17.112;2024-03-07T08:33:03;101098.80;;;5.90
68952;BMP180;56000;51.146;17.112;2024-03-07T08:35:33;101094.40;;;6.00
68952;BMP180;56000;51.146;17.112;2024-03-07T08:38:02;101098.80;;;6.20
68952;BMP180;56000;51.146;17.112;2024-03-07T08:40:31;101095.40;;;6.20
68952;BMP180;56000;51.146;17.112;2024-03-07T08:43:01;101094.60;;;6.10
68952;BMP180;56000;51.146;17.112;2024-03-07T08:45:30;101090.00;;;5.90
68952;BMP180;56000;51.146;17.112;2024-03-07T08:48:01;101092.60;;;5.78
68952;BMP180;56000;51.146;17.112;2024-03-07T08:50:32;101089.40;;;5.68
68952;BMP180;56000;51.146;17.112;2024-03-07T08:53:02;101093.80;;;5.50
68952;BMP180;56000;51.146;17.112;2024-03-07T08:55:32;101101.40;;;5.50
68952;BMP180;56000;51.146;17.112;2024-03-07T08:58:00;101099.00;;;5.44
68952;BMP180;56000;51.146;17.112;2024-03-07T09:00:29;101100.20;;;5.40
68952;BMP180;56000;51.146;17.112;2024-03-07T09:03:03;101101.00;;;5.30
68952;BMP180;56000;51.146;17.112;2024-03-07T09:05:34;101102.40;;;5.30
68952;BMP180;56000;51.146;17.112;2024-03-07T09:08:04;101104.80;;;5.20
68952;BMP180;56000;51.146;17.112;2024-03-07T09:10:33;101104.60;;;5.10
68952;BMP180;56000;51.146;17.112;2024-03-07T09:13:01;101099.80;;;5.00
68952;BMP180;56000;51.146;17.112;2024-03-07T09:15:30;101104.60;;;4.90
68952;BMP180;56000;51.146;17.112;2024-03-07T09:18:01;101102.60;;;4.90
68952;BMP180;56000;51.146;17.112;2024-03-07T09:20:31;101100.80;;;4.92
68952;BMP180;56000;51.146;17.112;2024-03-07T09:23:00;101105.60;;;5.02
68952;BMP180;56000;51.146;17.112;2024-03-07T09:25:29;101102.80;;;5.10
68952;BMP180;56000;51.146;17.112;2024-03-07T09:28:00;101107.80;;;5.10
68952;BMP180;56000;51.146;17.112;2024-03-07T09:30:29;101105.60;;;5.10
68952;BMP180;56000;51.146;17.112;2024-03-07T09:32:58;101104.20;;;5.10
68952;BMP180;56000;51.146;17.112;2024-03-07T09:35:27;101109.20;;;5.10
68952;BMP180;56000;51.146;17.112;2024-03-07T09:37:56;101106.20;;;5.10
68952;BMP180;56000;51.146;17.112;2024-03-07T09:40:25;101104.00;;;5.00
68952;BMP180;56000;51.146;17.112;2024-03-07T09:42:55;101107.80;;;5.00
68952;BMP180;56000;51.146;17.112;2024-03-07T09:45:29;101112.40;;;5.00
68952;BMP180;56000;51.146;17.112;2024-03-07T09:47:59;101110.00;;;5.00
68952;BMP180;56000;51.146;17.112;2024-03-07T09:50:29;101111.60;;;5.00
68952;BMP180;56000;51.146;17.112;2024-03-07T09:52:59;101116.00;;;4.90
68952;BMP180;56000;51.146;17.112;2024-03-07T09:55:29;101114.00;;;4.90
68952;BMP180;56000;51.146;17.112;2024-03-07T09:57:59;101118.80;;;5.00
68952;BMP180;56000;51.146;17.112;2024-03-07T10:00:29;101120.00;;;5.10
68952;BMP180;56000;51.146;17.112;2024-03-07T10:02:59;101118.60;;;5.20
68952;BMP180;56000;51.146;17.112;2024-03-07T10:05:31;101114.60;;;5.38
68952;BMP180;56000;51.146;17.112;2024-03-07T10:08:00;101109.60;;;5.64
68952;BMP180;56000;51.146;17.112;2024-03-07T10:10:29;101106.60;;;7.14
68952;BMP180;56000;51.146;17.112;2024-03-07T10:12:58;101101.60;;;7.90
68952;BMP180;56000;51.146;17.112;2024-03-07T10:15:28;101092.80;;;7.90
68952;BMP180;56000;51.146;17.112;2024-03-07T10:17:57;101103.20;;;7.80
68952;BMP180;56000;51.146;17.112;2024-03-07T10:20:26;101103.80;;;7.74
68952;BMP180;56000;51.146;17.112;2024-03-07T10:22:55;101102.80;;;7.90
68952;BMP180;56000;51.146;17.112;2024-03-07T10:25:24;101104.20;;;7.90
68952;BMP180;56000;51.146;17.112;2024-03-07T10:27:54;101098.00;;;8.10
68952;BMP180;56000;51.146;17.112;2024-03-07T10:30:22;101101.20;;;8.30
68952;BMP180;56000;51.146;17.112;2024-03-07T10:32:54;101102.80;;;8.80
68952;BMP180;56000;51.146;17.112;2024-03-07T10:35:23;101093.80;;;9.30
68952;BMP180;56000;51.146;17.112;2024-03-07T10:37:53;101097.60;;;9.50
68952;BMP180;56000;51.146;17.112;2024-03-07T10:40:22;101094.60;;;9.60
68952;BMP180;56000;51.146;17.112;2024-03-07T10:42:55;101098.40;;;9.60
68952;BMP180;56000;51.146;17.112;2024-03-07T10:45:24;101097.00;;;9.54
68952;BMP180;56000;51.146;17.112;2024-03-07T10:47:56;101096.20;;;9.50
68952;BMP180;56000;51.146;17.112;2024-03-07T10:50:38;101093.20;;;9.46
68952;BMP180;56000;51.146;17.112;2024-03-07T10:53:19;101093.20;;;9.40
68952;BMP180;56000;51.146;17.112;2024-03-07T10:55:56;101088.40;;;9.40
68952;BMP180;56000;51.146;17.112;2024-03-07T10:58:36;101095.40;;;9.30
68952;BMP180;56000;51.146;17.112;2024-03-07T11:01:05;101085.40;;;9.28
68952;BMP180;56000;51.146;17.112;2024-03-07T11:03:34;101088.40;;;9.02
68952;BMP180;56000;51.146;17.112;2024-03-07T11:06:04;101086.60;;;8.70
68952;BMP180;56000;51.146;17.112;2024-03-07T11:08:39;101085.00;;;8.52
68952;BMP180;56000;51.146;17.112;2024-03-07T11:11:07;101082.20;;;8.44
68952;BMP180;56000;51.146;17.112;2024-03-07T11:13:36;101081.00;;;8.44
68952;BMP180;56000;51.146;17.112;2024-03-07T11:16:06;101083.60;;;8.50
68952;BMP180;56000;51.146;17.112;2024-03-07T11:18:35;101089.40;;;8.60
68952;BMP180;56000;51.146;17.112;2024-03-07T11:21:04;101085.60;;;8.68
68952;BMP180;56000;51.146;17.112;2024-03-07T11:23:35;101081.80;;;8.46
68952;BMP180;56000;51.146;17.112;2024-03-07T11:26:06;101084.00;;;8.30
68952;BMP180;56000;51.146;17.112;2024-03-07T11:28:37;101091.00;;;8.30
68952;BMP180;56000;51.146;17.112;2024-03-07T11:31:24;101085.20;;;8.20
68952;BMP180;56000;51.146;17.112;2024-03-07T11:34:15;101084.60;;;8.22
68952;BMP180;56000;51.146;17.112;2024-03-07T11:36:44;101077.20;;;8.42
68952;BMP180;56000;51.146;17.112;2024-03-07T11:39:42;101076.40;;;8.54
68952;BMP180;56000;51.146;17.112;2024-03-07T11:42:20;101073.40;;;8.66
68952;BMP180;56000;51.146;17.112;2024-03-07T11:44:51;101072.00;;;8.70
68952;BMP180;56000;51.146;17.112;2024-03-07T11:47:19;101065.60;;;8.80
68952;BMP180;56000;51.146;17.112;2024-03-07T11:49:48;101062.40;;;8.76
68952;BMP180;56000;51.146;17.112;2024-03-07T11:52:16;101051.80;;;8.80
68952;BMP180;56000;51.146;17.112;2024-03-07T11:54:45;101056.00;;;8.80
68952;BMP180;56000;51.146;17.112;2024-03-07T11:57:16;101050.20;;;9.00
68952;BMP180;56000;51.146;17.112;2024-03-07T11:59:47;101054.40;;;9.08
68952;BMP180;56000;51.146;17.112;2024-03-07T12:02:20;101049.40;;;8.90
68952;BMP180;56000;51.146;17.112;2024-03-07T12:04:50;101041.80;;;8.90
68952;BMP180;56000;51.146;17.112;2024-03-07T12:07:19;101039.80;;;9.00
68952;BMP180;56000;51.146;17.112;2024-03-07T12:09:50;101044.80;;;9.18
68952;BMP180;56000;51.146;17.112;2024-03-07T12:12:19;101042.60;;;9.28
68952;BMP180;56000;51.146;17.112;2024-03-07T12:14:49;101035.00;;;9.20
68952;BMP180;56000;51.146;17.112;2024-03-07T12:17:19;101033.80;;;9.20
68952;BMP180;56000;51.146;17.112;2024-03-07T12:19:48;101032.60;;;9.20
68952;BMP180;56000;51.146;17.112;2024-03-07T12:22:20;101033.20;;;9.30
68952;BMP180;56000;51.146;17.112;2024-03-07T12:25:00;101026.60;;;9.60
68952;BMP180;56000;51.146;17.112;2024-03-07T12:27:30;101028.20;;;9.60
68952;BMP180;56000;51.146;17.112;2024-03-07T12:29:59;101036.20;;;9.44
68952;BMP180;56000;51.146;17.112;2024-03-07T12:32:35;101030.40;;;9.20
68952;BMP180;56000;51.146;17.112;2024-03-07T12:35:06;101026.40;;;9.10
68952;BMP180;56000;51.146;17.112;2024-03-07T12:37:36;101027.40;;;8.84
68952;BMP180;56000;51.146;17.112;2024-03-07T12:40:12;101028.40;;;8.70
68952;BMP180;56000;51.146;17.112;2024-03-07T12:42:47;101023.60;;;8.60
68952;BMP180;56000;51.146;17.112;2024-03-07T12:45:17;101029.20;;;8.50
68952;BMP180;56000;51.146;17.112;2024-03-07T12:47:47;101028.20;;;8.50
68952;BMP180;56000;51.146;17.112;2024-03-07T12:50:19;101032.40;;;8.36
68952;BMP180;56000;51.146;17.112;2024-03-07T12:52:48;101033.20;;;8.20
68952;BMP180;56000;51.146;17.112;2024-03-07T12:55:17;101035.60;;;7.90
68952;BMP180;56000;51.146;17.112;2024-03-07T12:57:46;101037.20;;;7.70
68952;BMP180;56000;51.146;17.112;2024-03-07T13:00:16;101039.20;;;7.60
68952;BMP180;56000;51.146;17.112;2024-03-07T13:02:48;101041.60;;;7.50
68952;BMP180;56000;51.146;17.112;2024-03-07T13:05:17;101037.60;;;7.50
68952;BMP180;56000;51.146;17.112;2024-03-07T13:07:50;101042.80;;;7.50
68952;BMP180;56000;51.146;17.112;2024-03-07T13:10:18;101041.80;;;7.50
68952;BMP180;56000;51.146;17.112;2024-03-07T13:12:47;101040.60;;;7.44
68952;BMP180;56000;51.146;17.112;2024-03-07T13:15:16;101040.40;;;7.40
68952;BMP180;56000;51.146;17.112;2024-03-07T13:17:45;101041.40;;;7.40
68952;BMP180;56000;51.146;17.112;2024-03-07T13:20:14;101039.60;;;7.50
68952;BMP180;56000;51.146;17.112;2024-03-07T13:22:43;101042.00;;;7.50
68952;BMP180;56000;51.146;17.112;2024-03-07T13:25:16;101048.00;;;7.60
68952;BMP180;56000;51.146;17.112;2024-03-07T13:27:52;101046.20;;;7.70
68952;BMP180;56000;51.146;17.112;2024-03-07T13:30:23;101042.60;;;7.70
68952;BMP180;56000;51.146;17.112;2024-03-07T13:32:55;101046.40;;;7.70
68952;BMP180;56000;51.146;17.112;2024-03-07T13:35:24;101051.00;;;7.70
68952;BMP180;56000;51.146;17.112;2024-03-07T13:37:53;101051.00;;;7.60
68952;BMP180;56000;51.146;17.112;2024-03-07T13:40:23;101049.80;;;7.50
68952;BMP180;56000;51.146;17.112;2024-03-07T13:42:53;101050.80;;;7.44
68952;BMP180;56000;51.146;17.112;2024-03-07T13:45:23;101047.20;;;7.40
68952;BMP180;56000;51.146;17.112;2024-03-07T13:47:52;101046.00;;;7.38
68952;BMP180;56000;51.146;17.112;2024-03-07T13:50:23;101045.60;;;7.40
68952;BMP180;56000;51.146;17.112;2024-03-07T13:53:12;101035.40;;;7.50
68952;BMP180;56000;51.146;17.112;2024-03-07T13:55:54;101036.20;;;7.50
68952;BMP180;56000;51.146;17.112;2024-03-07T13:58:36;101035.20;;;7.50
68952;BMP180;56000;51.146;17.112;2024-03-07T14:01:20;101035.60;;;7.50
68952;BMP180;56000;51.146;17.112;2024-03-07T14:04:22;101043.00;;;7.50
68952;BMP180;56000;51.146;17.112;2024-03-07T14:07:06;101040.20;;;7.40
68952;BMP180;56000;51.146;17.112;2024-03-07T14:09:53;101036.40;;;7.40
68952;BMP180;56000;51.146;17.112;2024-03-07T14:12:34;101038.00;;;7.30